createdAt,value
2018-05-01T00:00:17.025Z,99435.21
2018-05-01T00:02:45.189Z,99443.48
2018-05-01T00:05:13.370Z,99443.20
2018-05-01T00:07:41.535Z,99437.39
2018-05-01T00:10:09.712Z,99438.83
2018-05-01T00:12:37.860Z,99446.55
2018-05-01T00:15:06.044Z,99466.87
2018-05-01T00:17:34.225Z,99458.66
2018-05-01T00:20:02.393Z,99471.49
2018-05-01T00:22:30.568Z,99456.34
2018-05-01T00:24:58.741Z,99477.05
2018-05-01T00:27:26.931Z,99452.89
2018-05-01T00:29:55.084Z,99444.05
2018-05-01T00:32:23.273Z,99467.67
2018-05-01T00:34:51.393Z,99470.39
2018-05-01T00:37:19.565Z,99482.15
2018-05-01T00:39:47.738Z,99480.70
2018-05-01T00:42:15.894Z,99484.50
2018-05-01T00:44:44.032Z,99479.08
2018-05-01T00:47:12.199Z,99491.01
2018-05-01T00:49:40.475Z,99498.34
2018-05-01T00:52:09.538Z,99488.41
2018-05-01T00:54:37.761Z,99487.22
2018-05-01T00:57:05.874Z,99505.67
2018-05-01T00:59:34.038Z,99511.56
2018-05-01T01:02:02.174Z,99503.02
2018-05-01T01:04:30.373Z,99508.20
2018-05-01T01:06:58.510Z,99525.86
2018-05-01T01:09:26.678Z,99512.05
2018-05-01T01:11:54.845Z,99507.69
2018-05-01T01:14:23.033Z,99499.63
2018-05-01T01:16:51.185Z,99515.58
2018-05-01T01:19:19.338Z,99528.80
2018-05-01T01:21:47.508Z,99515.58
2018-05-01T01:24:15.784Z,99523.45
2018-05-01T01:26:43.886Z,99537.19
2018-05-01T01:29:12.058Z,99548.44
2018-05-01T01:31:40.227Z,99538.94
2018-05-01T01:34:08.374Z,99544.23
2018-05-01T01:36:35.526Z,99557.69
2018-05-01T01:39:02.644Z,99542.52
2018-05-01T01:41:29.776Z,99554.95
2018-05-01T01:43:57.030Z,99563.77
2018-05-01T01:46:24.175Z,99549.20
2018-05-01T01:48:51.295Z,99558.09
2018-05-01T01:51:18.431Z,99574.82
2018-05-01T01:53:45.575Z,99571.55
2018-05-01T01:56:12.697Z,99575.25
2018-05-01T01:58:39.852Z,99582.11
2018-05-01T02:01:06.999Z,99583.00
2018-05-01T02:03:34.130Z,99579.71
2018-05-01T02:06:01.256Z,99585.27
2018-05-01T02:08:28.399Z,99587.67
2018-05-01T02:10:55.561Z,99590.05
2018-05-01T02:13:22.675Z,99592.53
2018-05-01T02:15:49.813Z,99596.10
2018-05-01T02:18:16.949Z,99599.05
2018-05-01T02:20:44.073Z,99601.23
2018-05-01T02:23:11.201Z,99606.00
2018-05-01T02:25:38.332Z,99614.35
2018-05-01T02:28:05.483Z,99606.38
2018-05-01T02:30:32.687Z,99629.09
2018-05-01T02:32:59.756Z,99636.58
2018-05-01T02:35:26.919Z,99629.30
2018-05-01T02:37:54.036Z,99629.04
2018-05-01T02:40:21.147Z,99639.98
2018-05-01T02:42:48.282Z,99625.34
2018-05-01T02:45:15.428Z,99641.41
2018-05-01T02:47:42.561Z,99652.36
2018-05-01T02:50:09.687Z,99643.03
2018-05-01T02:52:36.853Z,99656.53
2018-05-01T02:55:03.990Z,99660.55
2018-05-01T02:57:31.097Z,99656.20
2018-05-01T02:59:58.226Z,99660.78
2018-05-01T03:02:25.389Z,99664.14
2018-05-01T03:04:52.539Z,99658.62
2018-05-01T03:07:19.670Z,99667.52
2018-05-01T03:09:46.901Z,99670.23
2018-05-01T03:12:13.958Z,99670.94
2018-05-01T03:14:41.098Z,99668.72
2018-05-01T03:17:08.256Z,99680.63
2018-05-01T03:19:35.380Z,99693.75
2018-05-01T03:22:02.490Z,99693.24
2018-05-01T03:24:29.633Z,99682.91
2018-05-01T03:26:56.782Z,99681.17
2018-05-01T03:29:26.614Z,99695.89
2018-05-01T03:31:53.734Z,99694.48
2018-05-01T03:34:20.893Z,99715.10
2018-05-01T03:36:48.033Z,99700.16
2018-05-01T03:39:15.229Z,99712.67
2018-05-01T03:41:42.329Z,99720.41
2018-05-01T03:44:09.460Z,99732.30
2018-05-01T03:46:36.613Z,99733.96
2018-05-01T03:49:03.834Z,99733.11
2018-05-01T03:51:30.975Z,99753.52
2018-05-01T03:53:58.121Z,99752.16
2018-05-01T03:56:25.241Z,99754.34
2018-05-01T03:58:52.378Z,99771.84
2018-05-01T04:01:19.524Z,99773.78
2018-05-01T04:03:46.678Z,99752.98
2018-05-01T04:06:13.816Z,99774.19
2018-05-01T04:08:40.969Z,99777.31
2018-05-01T04:11:08.177Z,99780.57
2018-05-01T04:13:35.314Z,99785.69
2018-05-01T04:16:02.453Z,99802.55
2018-05-01T04:18:29.590Z,99804.30
2018-05-01T04:20:56.741Z,99816.94
2018-05-01T04:23:23.869Z,99811.30
2018-05-01T04:25:51.030Z,99824.28
2018-05-01T04:28:18.148Z,99833.65
2018-05-01T04:30:45.290Z,99833.44
2018-05-01T04:33:12.421Z,99835.58
2018-05-01T04:35:39.559Z,99834.36
2018-05-01T04:38:06.686Z,99849.81
2018-05-01T04:40:33.837Z,99866.60
2018-05-01T04:43:00.987Z,99867.34
2018-05-01T04:45:28.099Z,99858.94
2018-05-01T04:47:55.261Z,99879.23
2018-05-01T04:50:22.406Z,99880.00
2018-05-01T04:52:49.580Z,99900.79
2018-05-01T04:55:16.696Z,99887.96
2018-05-01T04:57:43.892Z,99893.84
2018-05-01T05:00:10.982Z,99910.37
2018-05-01T05:02:38.093Z,99921.70
2018-05-01T05:05:05.223Z,99918.64
2018-05-01T05:07:32.356Z,99931.05
2018-05-01T05:09:59.489Z,99927.06
2018-05-01T05:12:26.634Z,99913.91
2018-05-01T05:14:53.779Z,99939.30
2018-05-01T05:17:20.882Z,99943.53
2018-05-01T05:19:48.013Z,99967.48
2018-05-01T05:22:15.178Z,99981.56
2018-05-01T05:24:42.333Z,99976.69
2018-05-01T05:27:09.499Z,99971.06
2018-05-01T05:29:36.646Z,99976.80
2018-05-01T05:32:03.789Z,99993.03
2018-05-01T05:34:30.922Z,99985.58
2018-05-01T05:36:58.055Z,100001.02
2018-05-01T05:39:25.264Z,100016.20
2018-05-01T05:41:52.380Z,100008.66
2018-05-01T05:44:19.494Z,100023.37
2018-05-01T05:46:46.628Z,100027.69
2018-05-01T05:49:13.799Z,100031.06
2018-05-01T05:51:40.929Z,100046.94
2018-05-01T05:54:08.097Z,100058.55
2018-05-01T05:56:35.247Z,100058.77
2018-05-01T05:59:02.393Z,100064.97
2018-05-01T06:01:29.544Z,100072.96
2018-05-01T06:03:56.717Z,100078.09
2018-05-01T06:06:23.866Z,100078.78
2018-05-01T06:08:51.069Z,100091.89
2018-05-01T06:11:18.276Z,100081.95
2018-05-01T06:13:45.514Z,100090.89
2018-05-01T06:16:12.550Z,100102.01
2018-05-01T06:18:39.700Z,100105.80
2018-05-01T06:21:06.853Z,100115.53
2018-05-01T06:23:33.996Z,100119.29
2018-05-01T06:26:01.123Z,100128.42
2018-05-01T06:28:28.280Z,100131.98
2018-05-01T06:30:55.424Z,100136.45
2018-05-01T06:33:22.621Z,100145.69
2018-05-01T06:35:49.674Z,100154.66
2018-05-01T06:38:16.833Z,100150.99
2018-05-01T06:40:43.973Z,100162.34
2018-05-01T06:43:11.107Z,100163.69
2018-05-01T06:45:38.380Z,100163.52
2018-05-01T06:48:05.529Z,100166.00
2018-05-01T06:50:32.636Z,100173.53
2018-05-01T06:52:59.767Z,100180.38
2018-05-01T06:55:26.930Z,100184.12
2018-05-01T06:57:54.081Z,100188.21
2018-05-01T07:00:21.263Z,100194.03
2018-05-01T07:02:48.414Z,100195.25
2018-05-01T07:05:15.576Z,100199.85
2018-05-01T07:07:42.706Z,100203.34
2018-05-01T07:10:09.907Z,100211.84
2018-05-01T07:12:37.013Z,100218.25
2018-05-01T07:15:04.129Z,100225.45
2018-05-01T07:17:31.301Z,100231.02
2018-05-01T07:19:58.450Z,100222.80
2018-05-01T07:22:25.595Z,100236.34
2018-05-01T07:24:52.741Z,100235.75
2018-05-01T07:27:19.868Z,100258.45
2018-05-01T07:29:47.008Z,100240.36
2018-05-01T07:32:14.147Z,100255.02
2018-05-01T07:34:41.297Z,100259.66
2018-05-01T07:37:08.449Z,100277.33
2018-05-01T07:39:35.702Z,100273.47
2018-05-01T07:42:02.847Z,100281.94
2018-05-01T07:44:29.967Z,100285.52
2018-05-01T07:46:57.154Z,100288.38
2018-05-01T07:49:24.298Z,100293.31
2018-05-01T07:51:51.444Z,100294.83
2018-05-01T07:54:18.598Z,100295.59
2018-05-01T07:56:45.761Z,100294.17
2018-05-01T07:59:12.920Z,100286.87
2018-05-01T08:01:40.074Z,100299.84
2018-05-01T08:04:07.220Z,100312.98
2018-05-01T08:06:34.395Z,100305.48
2018-05-01T08:09:01.697Z,100320.59
2018-05-01T08:11:28.863Z,100324.12
2018-05-01T08:13:55.980Z,100329.28
2018-05-01T08:16:23.100Z,100333.23
2018-05-01T08:18:50.262Z,100331.69
2018-05-01T08:21:17.402Z,100339.95
2018-05-01T08:23:44.544Z,100343.21
2018-05-01T08:26:11.723Z,100344.59
2018-05-01T08:28:38.848Z,100361.61
2018-05-01T08:31:05.971Z,100359.34
2018-05-01T08:33:33.137Z,100366.18
2018-05-01T08:36:00.282Z,100380.95
2018-05-01T08:38:27.435Z,100383.70
2018-05-01T08:40:54.627Z,100388.84
2018-05-01T08:43:21.833Z,100385.61
2018-05-01T08:45:48.956Z,100388.60
2018-05-01T08:48:16.089Z,100388.47
2018-05-01T08:50:43.241Z,100389.10
2018-05-01T08:53:11.341Z,100403.03
2018-05-01T08:55:38.490Z,100412.53
2018-05-01T08:58:05.851Z,100420.94
2018-05-01T09:00:33.015Z,100421.89
2018-05-01T09:03:00.175Z,100424.13
2018-05-01T09:05:27.292Z,100428.88
2018-05-01T09:07:54.462Z,100429.56
2018-05-01T09:10:21.614Z,100427.79
2018-05-01T09:12:48.751Z,100429.04
2018-05-01T09:15:15.894Z,100431.01
2018-05-01T09:17:43.032Z,100420.17
2018-05-01T09:20:10.172Z,100430.06
2018-05-01T09:22:37.315Z,100426.53
2018-05-01T09:25:04.459Z,100431.85
2018-05-01T09:27:31.634Z,100443.95
2018-05-01T09:29:58.863Z,100435.62
2018-05-01T09:32:26.009Z,100437.41
2018-05-01T09:34:53.142Z,100437.67
2018-05-01T09:37:20.308Z,100445.47
2018-05-01T09:39:47.434Z,100459.33
2018-05-01T09:42:14.610Z,100450.16
2018-05-01T09:44:41.757Z,100458.65
2018-05-01T09:47:08.916Z,100454.05
2018-05-01T09:49:36.117Z,100459.24
2018-05-01T09:52:03.170Z,100449.42
2018-05-01T09:54:31.324Z,100470.33
2018-05-01T09:56:59.517Z,100446.59
2018-05-01T09:59:27.715Z,100466.63
2018-05-01T10:01:56.035Z,100455.61
2018-05-01T10:04:24.255Z,100472.61
2018-05-01T10:06:52.424Z,100469.00
2018-05-01T10:09:20.630Z,100460.60
2018-05-01T10:11:48.812Z,100475.06
2018-05-01T10:14:21.156Z,100461.42
2018-05-01T10:16:49.326Z,100481.63
2018-05-01T10:19:17.463Z,100483.09
2018-05-01T10:21:45.653Z,100484.81
2018-05-01T10:24:13.864Z,100490.42
2018-05-01T10:26:42.050Z,100485.38
2018-05-01T10:29:10.230Z,100488.94
2018-05-01T10:31:38.398Z,100494.18
2018-05-01T10:34:06.678Z,100499.84
2018-05-01T10:36:34.859Z,100512.81
2018-05-01T10:39:03.290Z,100508.46
2018-05-01T10:41:31.403Z,100521.74
2018-05-01T10:43:59.615Z,100515.14
2018-05-01T10:46:28.095Z,100524.86
2018-05-01T10:48:56.726Z,100523.77
2018-05-01T10:51:24.886Z,100543.32
2018-05-01T10:53:53.022Z,100534.03
2018-05-01T10:56:21.211Z,100542.06
2018-05-01T10:58:49.395Z,100547.61
2018-05-01T11:01:17.577Z,100534.34
2018-05-01T11:03:45.798Z,100548.02
2018-05-01T11:06:13.977Z,100533.61
2018-05-01T11:08:42.287Z,100538.48
2018-05-01T11:11:10.492Z,100526.24
2018-05-01T11:13:38.657Z,100548.06
2018-05-01T11:16:06.877Z,100550.95
2018-05-01T11:18:35.055Z,100541.28
2018-05-01T11:21:03.256Z,100547.45
2018-05-01T11:23:31.390Z,100550.31
2018-05-01T11:25:59.650Z,100557.61
2018-05-01T11:28:27.828Z,100553.20
2018-05-01T11:30:55.955Z,100563.41
2018-05-01T11:33:24.109Z,100570.55
2018-05-01T11:35:52.287Z,100575.37
2018-05-01T11:38:20.613Z,100580.44
2018-05-01T11:40:48.857Z,100569.45
2018-05-01T11:43:17.003Z,100607.10
2018-05-01T11:45:45.150Z,100581.62
2018-05-01T11:48:13.331Z,100586.11
2018-05-01T11:50:41.540Z,100593.50
2018-05-01T11:53:09.734Z,100593.56
2018-05-01T11:55:37.927Z,100610.64
2018-05-01T11:58:06.096Z,100609.06
2018-05-01T12:00:34.248Z,100619.99
2018-05-01T12:03:02.425Z,100605.31
2018-05-01T12:05:30.544Z,100598.01
2018-05-01T12:07:58.763Z,100611.25
2018-05-01T12:10:27.319Z,100609.33
2018-05-01T12:12:55.511Z,100622.34
2018-05-01T12:15:23.664Z,100638.80
2018-05-01T12:17:51.850Z,100632.30
2018-05-01T12:20:20.011Z,100660.28
2018-05-01T12:22:48.190Z,100630.52
2018-05-01T12:25:16.357Z,100635.16
2018-05-01T12:27:44.537Z,100638.06
2018-05-01T12:30:12.711Z,100630.47
2018-05-01T12:32:40.879Z,100645.94
2018-05-01T12:35:09.047Z,100642.64
2018-05-01T12:37:37.228Z,100643.67
2018-05-01T12:40:05.381Z,100659.77
2018-05-01T12:42:33.978Z,100657.75
2018-05-01T12:45:02.139Z,100679.84
2018-05-01T12:47:30.307Z,100658.46
2018-05-01T12:49:58.485Z,100649.17
2018-05-01T12:52:26.640Z,100649.69
2018-05-01T12:54:54.883Z,100647.03
2018-05-01T12:57:23.060Z,100668.58
2018-05-01T12:59:51.205Z,100666.95
2018-05-01T13:02:19.369Z,100667.73
2018-05-01T13:04:47.527Z,100683.17
2018-05-01T13:07:15.677Z,100668.16
2018-05-01T13:09:43.891Z,100676.09
2018-05-01T13:12:12.072Z,100677.28
2018-05-01T13:14:40.242Z,100679.09
2018-05-01T13:17:08.886Z,100683.52
2018-05-01T13:19:37.058Z,100675.19
2018-05-01T13:22:05.229Z,100685.42
2018-05-01T13:24:33.378Z,100684.87
2018-05-01T13:27:01.574Z,100667.55
2018-05-01T13:29:29.741Z,100666.70
2018-05-01T13:31:57.945Z,100676.12
2018-05-01T13:34:26.105Z,100663.64
2018-05-01T13:36:54.263Z,100668.16
2018-05-01T13:39:22.439Z,100666.30
2018-05-01T13:41:50.637Z,100665.71
2018-05-01T13:44:18.889Z,100679.27
2018-05-01T13:46:47.091Z,100669.08
2018-05-01T13:49:15.310Z,100679.75
2018-05-01T13:51:43.521Z,100675.82
2018-05-01T13:54:11.682Z,100671.68
2018-05-01T13:56:39.829Z,100685.69
2018-05-01T13:59:08.027Z,100669.50
2018-05-01T14:01:38.772Z,100678.81
2018-05-01T14:04:06.986Z,100684.70
2018-05-01T14:06:35.171Z,100681.88
2018-05-01T14:09:03.476Z,100688.20
2018-05-01T14:11:31.677Z,100688.07
2018-05-01T14:13:59.868Z,100692.30
2018-05-01T14:16:28.077Z,100679.62
2018-05-01T14:18:56.268Z,100691.66
2018-05-01T14:21:24.506Z,100696.83
2018-05-01T14:23:52.749Z,100694.05
2018-05-01T14:26:20.967Z,100706.90
2018-05-01T14:28:49.249Z,100704.83
2018-05-01T14:31:17.764Z,100707.02
2018-05-01T14:33:45.908Z,100719.02
2018-05-01T14:36:14.214Z,100720.12
2018-05-01T14:38:42.553Z,100715.09
2018-05-01T14:41:10.714Z,100714.98
2018-05-01T14:43:38.890Z,100705.69
2018-05-01T14:46:07.960Z,100720.03
2018-05-01T14:48:36.173Z,100716.01
2018-05-01T14:51:04.349Z,100728.48
2018-05-01T14:53:33.411Z,100722.11
2018-05-01T14:56:04.977Z,100739.17
2018-05-01T14:58:35.103Z,100741.87
2018-05-01T15:01:04.170Z,100741.53
2018-05-01T15:03:32.578Z,100734.97
2018-05-01T15:06:02.590Z,100734.97
2018-05-01T15:08:39.580Z,100736.84
2018-05-01T15:11:10.903Z,100736.52
2018-05-01T15:13:42.158Z,100732.07
2018-05-01T15:16:13.698Z,100741.98
2018-05-01T15:18:45.602Z,100746.22
2018-05-01T15:21:14.440Z,100740.00
2018-05-01T15:23:44.011Z,100749.46
2018-05-01T15:26:12.156Z,100746.13
2018-05-01T15:28:40.330Z,100753.88
2018-05-01T15:31:08.492Z,100747.88
2018-05-01T15:33:36.652Z,100742.23
2018-05-01T15:36:04.915Z,100745.02
2018-05-01T15:38:33.089Z,100758.93
2018-05-01T15:41:01.264Z,100753.95
2018-05-01T15:43:29.423Z,100750.22
2018-05-01T15:45:57.625Z,100752.45
2018-05-01T15:48:25.811Z,100751.66
2018-05-01T15:50:53.975Z,100752.86
2018-05-01T15:53:22.137Z,100746.41
2018-05-01T15:55:50.248Z,100757.72
2018-05-01T15:58:18.435Z,100747.98
2018-05-01T16:00:46.755Z,100758.05
2018-05-01T16:03:14.823Z,100763.16
2018-05-01T16:05:43.135Z,100770.52
2018-05-01T16:08:11.295Z,100764.28
2018-05-01T16:10:39.453Z,100761.14
2018-05-01T16:13:07.620Z,100775.72
2018-05-01T16:15:35.802Z,100768.88
2018-05-01T16:18:03.986Z,100772.87
2018-05-01T16:20:32.163Z,100765.42
2018-05-01T16:23:00.350Z,100775.53
2018-05-01T16:25:28.513Z,100775.81
2018-05-01T16:27:56.664Z,100771.74
2018-05-01T16:30:24.833Z,100774.52
2018-05-01T16:32:53.005Z,100771.37
2018-05-01T16:35:21.214Z,100775.11
2018-05-01T16:37:49.408Z,100772.91
2018-05-01T16:40:17.688Z,100772.75
2018-05-01T16:42:45.735Z,100783.55
2018-05-01T16:45:13.899Z,100783.34
2018-05-01T16:47:42.124Z,100775.67
2018-05-01T16:50:10.363Z,100780.19
2018-05-01T16:52:38.476Z,100784.30
2018-05-01T16:55:06.649Z,100780.31
2018-05-01T16:57:35.580Z,100781.84
2018-05-01T17:00:03.781Z,100776.66
2018-05-01T17:02:31.944Z,100782.03
2018-05-01T17:05:00.129Z,100783.18
2018-05-01T17:07:28.340Z,100774.15
2018-05-01T17:09:56.536Z,100775.97
2018-05-01T17:12:24.693Z,100772.22
2018-05-01T17:14:52.904Z,100773.48
2018-05-01T17:17:21.074Z,100777.22
2018-05-01T17:19:49.277Z,100773.91
2018-05-01T17:22:17.478Z,100768.89
2018-05-01T17:24:45.822Z,100769.64
2018-05-01T17:27:13.997Z,100777.20
2018-05-01T17:29:42.151Z,100774.20
2018-05-01T17:32:10.651Z,100768.09
2018-05-01T17:34:38.820Z,100770.66
2018-05-01T17:37:06.970Z,100763.81
2018-05-01T17:39:35.151Z,100766.54
2018-05-01T17:42:03.359Z,100767.31
2018-05-01T17:44:31.527Z,100769.80
2018-05-01T17:46:59.720Z,100760.26
2018-05-01T17:49:27.864Z,100761.94
2018-05-01T17:51:56.011Z,100767.12
2018-05-01T17:54:24.214Z,100765.84
2018-05-01T17:56:52.386Z,100769.06
2018-05-01T17:59:20.598Z,100767.89
2018-05-01T18:01:48.770Z,100768.59
2018-05-01T18:04:16.944Z,100770.27
2018-05-01T18:06:45.262Z,100765.45
2018-05-01T18:09:13.455Z,100773.59
2018-05-01T18:11:41.625Z,100770.95
2018-05-01T18:14:09.890Z,100773.48
2018-05-01T18:16:38.077Z,100779.00
2018-05-01T18:19:06.249Z,100777.30
2018-05-01T18:21:34.487Z,100781.65
2018-05-01T18:24:02.668Z,100776.63
2018-05-01T18:26:30.865Z,100773.56
2018-05-01T18:28:59.032Z,100771.42
2018-05-01T18:31:27.182Z,100768.69
2018-05-01T18:33:55.352Z,100771.97
2018-05-01T18:36:23.601Z,100772.55
2018-05-01T18:38:51.719Z,100775.11
2018-05-01T18:41:20.059Z,100774.47
2018-05-01T18:43:48.511Z,100776.52
2018-05-01T18:46:16.753Z,100782.56
2018-05-01T18:48:44.932Z,100782.75
2018-05-01T18:51:13.238Z,100780.34
2018-05-01T18:53:41.402Z,100780.63
2018-05-01T18:56:09.572Z,100781.25
2018-05-01T18:58:37.808Z,100776.39
2018-05-01T19:01:05.959Z,100787.84
2018-05-01T19:03:34.131Z,100787.84
2018-05-01T19:06:02.340Z,100793.94
2018-05-01T19:08:30.515Z,100793.43
2018-05-01T19:10:58.702Z,100793.28
2018-05-01T19:13:26.892Z,100797.05
2018-05-01T19:15:55.061Z,100798.96
2018-05-01T19:18:23.325Z,100802.30
2018-05-01T19:20:51.506Z,100797.98
2018-05-01T19:23:19.781Z,100796.37
2018-05-01T19:25:47.940Z,100799.84
2018-05-01T19:28:16.094Z,100802.55
2018-05-01T19:30:44.271Z,100800.44
2018-05-01T19:33:12.852Z,100806.39
2018-05-01T19:35:41.026Z,100808.02
2018-05-01T19:38:09.249Z,100809.17
2018-05-01T19:40:37.423Z,100807.77
2018-05-01T19:43:05.619Z,100803.50
2018-05-01T19:45:33.900Z,100799.50
2018-05-01T19:48:02.911Z,100796.59
2018-05-01T19:50:31.070Z,100800.64
2018-05-01T19:52:59.266Z,100799.30
2018-05-01T19:55:27.417Z,100810.56
2018-05-01T19:57:55.684Z,100812.92
2018-05-01T20:00:23.905Z,100811.69
2018-05-01T20:02:52.094Z,100806.97
2018-05-01T20:05:20.281Z,100808.30
2018-05-01T20:07:48.449Z,100809.31
2018-05-01T20:10:16.644Z,100808.89
2018-05-01T20:12:44.971Z,100808.86
2018-05-01T20:15:13.160Z,100807.35
2018-05-01T20:17:41.378Z,100811.52
2018-05-01T20:20:09.592Z,100816.28
2018-05-01T20:22:37.753Z,100814.00
2018-05-01T20:25:05.977Z,100810.70
2018-05-01T20:27:34.133Z,100808.62
2018-05-01T20:30:02.362Z,100811.89
2018-05-01T20:32:30.529Z,100804.13
2018-05-01T20:34:58.694Z,100810.86
2018-05-01T20:37:26.925Z,100807.06
2018-05-01T20:39:55.022Z,100808.88
2018-05-01T20:42:23.217Z,100806.30
2018-05-01T20:44:51.418Z,100806.50
2018-05-01T20:47:19.982Z,100809.70
2018-05-01T20:49:48.169Z,100809.59
2018-05-01T20:52:16.402Z,100818.73
2018-05-01T20:54:44.482Z,100819.92
2018-05-01T20:57:12.641Z,100823.35
2018-05-01T20:59:40.822Z,100818.52
2018-05-01T21:02:09.011Z,100819.44
2018-05-01T21:04:37.155Z,100831.42
2018-05-01T21:07:05.349Z,100827.37
2018-05-01T21:09:33.513Z,100828.36
2018-05-01T21:12:01.703Z,100828.59
2018-05-01T21:14:29.840Z,100826.69
2018-05-01T21:16:58.063Z,100822.31
2018-05-01T21:19:26.175Z,100825.78
2018-05-01T21:21:54.534Z,100832.39
2018-05-01T21:24:22.727Z,100827.87
2018-05-01T21:26:50.890Z,100827.31
2018-05-01T21:29:19.066Z,100827.47
2018-05-01T21:31:47.269Z,100824.37
2018-05-01T21:34:15.428Z,100827.53
2018-05-01T21:36:43.573Z,100831.72
2018-05-01T21:39:11.721Z,100828.61
2018-05-01T21:41:39.914Z,100827.25
2018-05-01T21:44:08.068Z,100830.42
2018-05-01T21:46:36.235Z,100823.01
2018-05-01T21:49:04.415Z,100825.23
2018-05-01T21:51:32.567Z,100822.41
2018-05-01T21:54:00.735Z,100826.82
2018-05-01T21:56:28.885Z,100836.83
2018-05-01T21:58:57.051Z,100829.95
2018-05-01T22:01:25.218Z,100832.59
2018-05-01T22:03:53.418Z,100830.23
2018-05-01T22:06:21.568Z,100826.73
2018-05-01T22:08:49.762Z,100825.62
2018-05-01T22:11:17.974Z,100820.82
2018-05-01T22:13:46.463Z,100824.68
2018-05-01T22:16:14.657Z,100813.41
2018-05-01T22:18:42.832Z,100813.84
2018-05-01T22:21:11.004Z,100824.03
2018-05-01T22:23:39.162Z,100820.77
2018-05-01T22:26:07.348Z,100820.34
2018-05-01T22:28:35.518Z,100821.47
2018-05-01T22:31:03.692Z,100824.11
2018-05-01T22:33:31.852Z,100823.09
2018-05-01T22:36:00.032Z,100821.39
2018-05-01T22:38:28.196Z,100828.74
2018-05-01T22:40:56.368Z,100823.37
2018-05-01T22:43:24.565Z,100823.42
2018-05-01T22:45:52.731Z,100824.05
2018-05-01T22:48:20.913Z,100823.63
2018-05-01T22:50:49.088Z,100825.88
2018-05-01T22:53:17.255Z,100825.81
2018-05-01T22:55:45.415Z,100822.67
2018-05-01T22:58:13.579Z,100822.75
2018-05-01T23:00:41.759Z,100823.80
2018-05-01T23:03:10.069Z,100820.17
2018-05-01T23:05:38.257Z,100819.80
2018-05-01T23:08:06.397Z,100823.87
2018-05-01T23:10:34.529Z,100825.39
2018-05-01T23:13:02.722Z,100822.16
2018-05-01T23:15:30.889Z,100817.50
2018-05-01T23:17:59.079Z,100822.91
2018-05-01T23:20:27.263Z,100824.96
2018-05-01T23:22:55.442Z,100826.27
2018-05-01T23:25:23.611Z,100823.37
2018-05-01T23:27:51.767Z,100822.39
2018-05-01T23:30:19.966Z,100826.47
2018-05-01T23:32:48.114Z,100820.50
2018-05-01T23:35:16.286Z,100821.84
2018-05-01T23:37:44.435Z,100820.44
2018-05-01T23:40:12.626Z,100822.20
2018-05-01T23:42:40.759Z,100827.44
2018-05-01T23:45:08.933Z,100823.11
2018-05-01T23:47:37.097Z,100820.47
2018-05-01T23:50:05.291Z,100821.95
2018-05-01T23:52:33.442Z,100814.95
2018-05-01T23:55:01.592Z,100817.59
2018-05-01T23:57:29.788Z,100816.73
2018-05-01T23:59:57.924Z,100813.72
